sensor_id;sensor_type;location;lat;lon;timestamp;temperature;humidity
19906;DHT22;10115;50.906;4.438;2023-04-25T00:02:18;8.20;99.90
19906;DHT22;10115;50.906;4.438;2023-04-25T00:04:43;8.20;99.90
19906;DHT22;10115;50.906;4.438;2023-04-25T00:07:10;8.30;99.90
19906;DHT22;10115;50.906;4.438;2023-04-25T00:09:36;8.30;99.90
19906;DHT22;10115;50.906;4.438;2023-04-25T00:12:01;8.20;99.90
19906;DHT22;10115;50.906;4.438;2023-04-25T00:14:27;8.20;99.90
19906;DHT22;10115;50.906;4.438;2023-04-25T00:16:53;8.20;99.90
19906;DHT22;10115;50.906;4.438;2023-04-25T00:19:19;8.20;99.90
19906;DHT22;10115;50.906;4.438;2023-04-25T00:21:45;8.40;99.90
19906;DHT22;10115;50.906;4.438;2023-04-25T00:24:12;8.40;99.90
19906;DHT22;10115;50.906;4.438;2023-04-25T00:26:38;8.40;99.90
19906;DHT22;10115;50.906;4.438;2023-04-25T00:29:04;8.50;99.90
19906;DHT22;10115;50.906;4.438;2023-04-25T00:31:30;8.60;99.90
19906;DHT22;10115;50.906;4.438;2023-04-25T00:33:55;8.50;99.90
19906;DHT22;10115;50.906;4.438;2023-04-25T00:36:21;8.50;99.90
19906;DHT22;10115;50.906;4.438;2023-04-25T00:38:47;8.40;99.90
19906;DHT22;10115;50.906;4.438;2023-04-25T00:41:13;8.40;99.90
19906;DHT22;10115;50.906;4.438;2023-04-25T00:43:39;8.30;99.90
19906;DHT22;10115;50.906;4.438;2023-04-25T00:46:05;8.10;99.90
19906;DHT22;10115;50.906;4.438;2023-04-25T00:48:31;8.00;99.90
19906;DHT22;10115;50.906;4.438;2023-04-25T00:50:59;8.00;99.90
19906;DHT22;10115;50.906;4.438;2023-04-25T00:53:26;8.00;99.90
19906;DHT22;10115;50.906;4.438;2023-04-25T00:55:52;8.00;99.90
19906;DHT22;10115;50.906;4.438;2023-04-25T00:58:20;8.00;99.90
19906;DHT22;10115;50.906;4.438;2023-04-25T01:00:47;7.90;99.90
19906;DHT22;10115;50.906;4.438;2023-04-25T01:03:14;7.90;99.90
19906;DHT22;10115;50.906;4.438;2023-04-25T01:05:43;7.90;99.90
19906;DHT22;10115;50.906;4.438;2023-04-25T01:08:09;8.00;99.90
19906;DHT22;10115;50.906;4.438;2023-04-25T01:10:35;8.00;99.90
19906;DHT22;10115;50.906;4.438;2023-04-25T01:13:01;8.00;99.90
19906;DHT22;10115;50.906;4.438;2023-04-25T01:15:27;8.00;99.90
19906;DHT22;10115;50.906;4.438;2023-04-25T01:17:53;7.90;99.90
19906;DHT22;10115;50.906;4.438;2023-04-25T01:20:22;7.90;99.90
19906;DHT22;10115;50.906;4.438;2023-04-25T01:22:49;7.90;99.90
19906;DHT22;10115;50.906;4.438;2023-04-25T01:25:15;7.90;99.90
19906;DHT22;10115;50.906;4.438;2023-04-25T01:27:42;8.00;99.90
19906;DHT22;10115;50.906;4.438;2023-04-25T01:30:09;8.10;99.90
19906;DHT22;10115;50.906;4.438;2023-04-25T01:32:35;8.10;99.90
19906;DHT22;10115;50.906;4.438;2023-04-25T01:35:05;8.10;99.90
19906;DHT22;10115;50.906;4.438;2023-04-25T01:37:36;8.10;99.90
19906;DHT22;10115;50.906;4.438;2023-04-25T01:40:02;8.10;99.90
19906;DHT22;10115;50.906;4.438;2023-04-25T01:42:31;8.10;99.90
19906;DHT22;10115;50.906;4.438;2023-04-25T01:44:57;8.00;99.90
19906;DHT22;10115;50.906;4.438;2023-04-25T01:47:23;7.90;99.90
19906;DHT22;10115;50.906;4.438;2023-04-25T01:49:48;7.80;99.90
19906;DHT22;10115;50.906;4.438;2023-04-25T01:52:14;7.80;99.90
19906;DHT22;10115;50.906;4.438;2023-04-25T01:54:40;7.60;99.90
19906;DHT22;10115;50.906;4.438;2023-04-25T01:57:10;7.70;99.90
19906;DHT22;10115;50.906;4.438;2023-04-25T01:59:36;7.70;99.90
19906;DHT22;10115;50.906;4.438;2023-04-25T02:02:02;7.60;99.90
19906;DHT22;10115;50.906;4.438;2023-04-25T02:04:29;7.70;99.90
19906;DHT22;10115;50.906;4.438;2023-04-25T02:06:55;7.70;99.90
19906;DHT22;10115;50.906;4.438;2023-04-25T02:09:22;7.70;99.90
19906;DHT22;10115;50.906;4.438;2023-04-25T02:11:48;7.70;99.90
19906;DHT22;10115;50.906;4.438;2023-04-25T02:14:14;7.70;99.90
19906;DHT22;10115;50.906;4.438;2023-04-25T02:16:39;7.50;99.90
19906;DHT22;10115;50.906;4.438;2023-04-25T02:19:06;7.40;99.90
19906;DHT22;10115;50.906;4.438;2023-04-25T02:21:32;7.40;99.90
19906;DHT22;10115;50.906;4.438;2023-04-25T02:23:57;7.50;99.90
19906;DHT22;10115;50.906;4.438;2023-04-25T02:26:23;7.50;99.90
19906;DHT22;10115;50.906;4.438;2023-04-25T02:28:50;7.50;99.90
19906;DHT22;10115;50.906;4.438;2023-04-25T02:31:16;7.60;99.90
19906;DHT22;10115;50.906;4.438;2023-04-25T02:33:42;7.50;99.90
19906;DHT22;10115;50.906;4.438;2023-04-25T02:36:08;7.50;99.90
19906;DHT22;10115;50.906;4.438;2023-04-25T02:38:34;7.40;99.90
19906;DHT22;10115;50.906;4.438;2023-04-25T02:41:00;7.40;99.90
19906;DHT22;10115;50.906;4.438;2023-04-25T02:43:25;7.60;99.90
19906;DHT22;10115;50.906;4.438;2023-04-25T02:45:51;7.60;99.90
19906;DHT22;10115;50.906;4.438;2023-04-25T02:48:17;7.70;99.90
19906;DHT22;10115;50.906;4.438;2023-04-25T02:50:42;7.60;99.90
19906;DHT22;10115;50.906;4.438;2023-04-25T02:53:08;7.60;99.90
19906;DHT22;10115;50.906;4.438;2023-04-25T02:55:34;7.50;99.90
19906;DHT22;10115;50.906;4.438;2023-04-25T02:58:00;7.40;99.90
19906;DHT22;10115;50.906;4.438;2023-04-25T03:00:25;7.40;99.90
19906;DHT22;10115;50.906;4.438;2023-04-25T03:02:51;7.50;99.90
19906;DHT22;10115;50.906;4.438;2023-04-25T03:05:17;7.50;99.90
19906;DHT22;10115;50.906;4.438;2023-04-25T03:07:44;7.40;99.90
19906;DHT22;10115;50.906;4.438;2023-04-25T03:10:10;7.40;99.90
19906;DHT22;10115;50.906;4.438;2023-04-25T03:12:36;7.40;99.90
19906;DHT22;10115;50.906;4.438;2023-04-25T03:15:02;7.40;99.90
19906;DHT22;10115;50.906;4.438;2023-04-25T03:17:28;7.50;99.90
19906;DHT22;10115;50.906;4.438;2023-04-25T03:19:54;7.60;99.90
19906;DHT22;10115;50.906;4.438;2023-04-25T03:22:20;7.50;99.90
19906;DHT22;10115;50.906;4.438;2023-04-25T03:24:45;7.40;99.90
19906;DHT22;10115;50.906;4.438;2023-04-25T03:27:12;7.40;99.90
19906;DHT22;10115;50.906;4.438;2023-04-25T03:29:38;7.40;99.90
19906;DHT22;10115;50.906;4.438;2023-04-25T03:32:03;7.50;99.90
19906;DHT22;10115;50.906;4.438;2023-04-25T03:34:29;7.50;99.90
19906;DHT22;10115;50.906;4.438;2023-04-25T03:36:55;7.40;99.90
19906;DHT22;10115;50.906;4.438;2023-04-25T03:39:21;7.40;99.90
19906;DHT22;10115;50.906;4.438;2023-04-25T03:41:47;7.40;99.90
19906;DHT22;10115;50.906;4.438;2023-04-25T03:44:14;7.40;99.90
19906;DHT22;10115;50.906;4.438;2023-04-25T03:46:39;7.40;99.90
19906;DHT22;10115;50.906;4.438;2023-04-25T03:49:05;7.20;99.90
19906;DHT22;10115;50.906;4.438;2023-04-25T03:51:31;7.20;99.90
19906;DHT22;10115;50.906;4.438;2023-04-25T03:53:57;7.10;99.90
19906;DHT22;10115;50.906;4.438;2023-04-25T03:56:22;7.20;99.90
19906;DHT22;10115;50.906;4.438;2023-04-25T03:58:48;7.20;99.90
19906;DHT22;10115;50.906;4.438;2023-04-25T04:01:14;7.20;99.90
19906;DHT22;10115;50.906;4.438;2023-04-25T04:03:39;7.00;99.90
19906;DHT22;10115;50.906;4.438;2023-04-25T04:06:06;7.00;99.90
19906;DHT22;10115;50.906;4.438;2023-04-25T04:08:33;6.90;99.90
19906;DHT22;10115;50.906;4.438;2023-04-25T04:10:59;6.80;99.90
19906;DHT22;10115;50.906;4.438;2023-04-25T04:13:29;6.80;99.90
19906;DHT22;10115;50.906;4.438;2023-04-25T04:15:55;7.00;99.90
19906;DHT22;10115;50.906;4.438;2023-04-25T04:18:21;7.10;99.90
19906;DHT22;10115;50.906;4.438;2023-04-25T04:20:47;7.00;99.90
19906;DHT22;10115;50.906;4.438;2023-04-25T04:23:13;7.10;99.90
19906;DHT22;10115;50.906;4.438;2023-04-25T04:25:39;7.10;99.90
19906;DHT22;10115;50.906;4.438;2023-04-25T04:28:06;7.20;99.90
19906;DHT22;10115;50.906;4.438;2023-04-25T04:30:32;7.30;99.90
19906;DHT22;10115;50.906;4.438;2023-04-25T04:33:02;7.40;99.90
19906;DHT22;10115;50.906;4.438;2023-04-25T04:35:28;7.40;99.90
19906;DHT22;10115;50.906;4.438;2023-04-25T04:37:53;7.50;99.90
19906;DHT22;10115;50.906;4.438;2023-04-25T04:40:20;7.50;99.90
19906;DHT22;10115;50.906;4.438;2023-04-25T04:42:46;7.40;99.90
19906;DHT22;10115;50.906;4.438;2023-04-25T04:45:12;7.40;99.90
19906;DHT22;10115;50.906;4.438;2023-04-25T04:47:38;7.30;99.90
19906;DHT22;10115;50.906;4.438;2023-04-25T04:50:06;7.40;99.90
19906;DHT22;10115;50.906;4.438;2023-04-25T04:52:37;7.40;99.90
19906;DHT22;10115;50.906;4.438;2023-04-25T04:55:04;7.30;99.90
19906;DHT22;10115;50.906;4.438;2023-04-25T04:57:31;7.20;99.90
19906;DHT22;10115;50.906;4.438;2023-04-25T04:59:58;7.20;99.90
19906;DHT22;10115;50.906;4.438;2023-04-25T05:02:25;7.30;99.90
19906;DHT22;10115;50.906;4.438;2023-04-25T05:04:51;7.20;99.90
19906;DHT22;10115;50.906;4.438;2023-04-25T05:07:17;7.10;99.90
19906;DHT22;10115;50.906;4.438;2023-04-25T05:09:44;6.80;99.90
19906;DHT22;10115;50.906;4.438;2023-04-25T05:12:09;6.60;99.90
19906;DHT22;10115;50.906;4.438;2023-04-25T05:14:35;6.40;99.90
19906;DHT22;10115;50.906;4.438;2023-04-25T05:17:01;6.40;99.90
19906;DHT22;10115;50.906;4.438;2023-04-25T05:19:30;6.40;99.90
19906;DHT22;10115;50.906;4.438;2023-04-25T05:21:56;6.50;99.90
19906;DHT22;10115;50.906;4.438;2023-04-25T05:24:21;6.60;99.90
19906;DHT22;10115;50.906;4.438;2023-04-25T05:26:47;6.70;99.90
19906;DHT22;10115;50.906;4.438;2023-04-25T05:29:13;6.60;99.90
19906;DHT22;10115;50.906;4.438;2023-04-25T05:31:38;6.60;99.90
19906;DHT22;10115;50.906;4.438;2023-04-25T05:34:04;6.70;99.90
19906;DHT22;10115;50.906;4.438;2023-04-25T05:36:29;6.80;99.90
19906;DHT22;10115;50.906;4.438;2023-04-25T05:38:57;6.90;99.90
19906;DHT22;10115;50.906;4.438;2023-04-25T05:41:23;6.90;99.90
19906;DHT22;10115;50.906;4.438;2023-04-25T05:43:49;6.80;99.90
19906;DHT22;10115;50.906;4.438;2023-04-25T05:46:15;6.90;99.90
19906;DHT22;10115;50.906;4.438;2023-04-25T05:48:43;6.90;99.90
19906;DHT22;10115;50.906;4.438;2023-04-25T05:51:09;6.90;99.90
19906;DHT22;10115;50.906;4.438;2023-04-25T05:53:35;7.00;99.90
19906;DHT22;10115;50.906;4.438;2023-04-25T05:56:01;7.10;99.90
19906;DHT22;10115;50.906;4.438;2023-04-25T05:58:27;6.90;99.90
19906;DHT22;10115;50.906;4.438;2023-04-25T06:00:52;7.00;99.90
19906;DHT22;10115;50.906;4.438;2023-04-25T06:03:18;7.20;99.90
19906;DHT22;10115;50.906;4.438;2023-04-25T06:05:44;7.30;99.90
19906;DHT22;10115;50.906;4.438;2023-04-25T06:08:10;7.20;99.90
19906;DHT22;10115;50.906;4.438;2023-04-25T06:10:38;7.40;99.90
19906;DHT22;10115;50.906;4.438;2023-04-25T06:13:04;7.50;99.90
19906;DHT22;10115;50.906;4.438;2023-04-25T06:15:30;7.30;99.90
19906;DHT22;10115;50.906;4.438;2023-04-25T06:17:57;7.10;99.90
19906;DHT22;10115;50.906;4.438;2023-04-25T06:20:23;7.10;99.90
19906;DHT22;10115;50.906;4.438;2023-04-25T06:22:53;7.00;99.90
19906;DHT22;10115;50.906;4.438;2023-04-25T06:25:20;7.00;99.90
19906;DHT22;10115;50.906;4.438;2023-04-25T06:27:46;7.10;99.90
19906;DHT22;10115;50.906;4.438;2023-04-25T06:30:12;7.10;99.90
19906;DHT22;10115;50.906;4.438;2023-04-25T06:32:38;7.10;99.90
19906;DHT22;10115;50.906;4.438;2023-04-25T06:35:04;7.00;99.90
19906;DHT22;10115;50.906;4.438;2023-04-25T06:37:30;7.10;99.90
19906;DHT22;10115;50.906;4.438;2023-04-25T06:39:56;7.10;99.90
19906;DHT22;10115;50.906;4.438;2023-04-25T06:42:22;7.20;99.90
19906;DHT22;10115;50.906;4.438;2023-04-25T06:44:47;7.20;99.90
19906;DHT22;10115;50.906;4.438;2023-04-25T06:47:14;7.40;99.90
19906;DHT22;10115;50.906;4.438;2023-04-25T06:49:40;7.40;99.90
19906;DHT22;10115;50.906;4.438;2023-04-25T06:52:05;7.30;99.90
19906;DHT22;10115;50.906;4.438;2023-04-25T06:54:31;7.30;99.90
19906;DHT22;10115;50.906;4.438;2023-04-25T06:56:57;7.20;99.90
19906;DHT22;10115;50.906;4.438;2023-04-25T06:59:22;7.20;99.90
19906;DHT22;10115;50.906;4.438;2023-04-25T07:01:48;7.30;99.90
19906;DHT22;10115;50.906;4.438;2023-04-25T07:04:16;7.30;99.90
19906;DHT22;10115;50.906;4.438;2023-04-25T07:06:42;7.40;99.90
19906;DHT22;10115;50.906;4.438;2023-04-25T07:09:09;7.40;99.90
19906;DHT22;10115;50.906;4.438;2023-04-25T07:11:36;7.50;99.90
19906;DHT22;10115;50.906;4.438;2023-04-25T07:14:02;7.60;99.90
19906;DHT22;10115;50.906;4.438;2023-04-25T07:16:28;7.70;99.90
19906;DHT22;10115;50.906;4.438;2023-04-25T07:18:54;7.70;99.90
19906;DHT22;10115;50.906;4.438;2023-04-25T07:21:20;7.70;99.90
19906;DHT22;10115;50.906;4.438;2023-04-25T07:23:46;7.70;99.90
19906;DHT22;10115;50.906;4.438;2023-04-25T07:26:12;7.90;99.90
19906;DHT22;10115;50.906;4.438;2023-04-25T07:28:37;8.20;99.90
19906;DHT22;10115;50.906;4.438;2023-04-25T07:31:03;8.10;99.90
19906;DHT22;10115;50.906;4.438;2023-04-25T07:33:32;8.30;99.90
19906;DHT22;10115;50.906;4.438;2023-04-25T07:35:58;8.30;99.90
19906;DHT22;10115;50.906;4.438;2023-04-25T07:38:24;8.20;99.90
19906;DHT22;10115;50.906;4.438;2023-04-25T07:40:50;8.20;99.90
19906;DHT22;10115;50.906;4.438;2023-04-25T07:43:16;8.50;99.90
19906;DHT22;10115;50.906;4.438;2023-04-25T07:45:45;8.80;99.90
19906;DHT22;10115;50.906;4.438;2023-04-25T07:48:11;8.90;99.90
19906;DHT22;10115;50.906;4.438;2023-04-25T07:50:37;8.60;99.90
19906;DHT22;10115;50.906;4.438;2023-04-25T07:53:03;8.50;99.90
19906;DHT22;10115;50.906;4.438;2023-04-25T07:55:29;8.50;99.90
19906;DHT22;10115;50.906;4.438;2023-04-25T07:57:55;8.50;99.90
19906;DHT22;10115;50.906;4.438;2023-04-25T08:00:20;8.50;99.90
19906;DHT22;10115;50.906;4.438;2023-04-25T08:02:46;8.50;99.90
19906;DHT22;10115;50.906;4.438;2023-04-25T08:05:12;8.60;99.90
19906;DHT22;10115;50.906;4.438;2023-04-25T08:07:40;8.50;99.90
19906;DHT22;10115;50.906;4.438;2023-04-25T08:10:07;8.50;99.90
19906;DHT22;10115;50.906;4.438;2023-04-25T08:12:33;8.60;99.90
19906;DHT22;10115;50.906;4.438;2023-04-25T08:14:59;9.00;99.90
19906;DHT22;10115;50.906;4.438;2023-04-25T08:17:24;9.30;99.90
19906;DHT22;10115;50.906;4.438;2023-04-25T08:19:50;9.60;99.90
19906;DHT22;10115;50.906;4.438;2023-04-25T08:22:16;9.70;99.90
19906;DHT22;10115;50.906;4.438;2023-04-25T08:24:42;9.80;99.90
19906;DHT22;10115;50.906;4.438;2023-04-25T08:27:07;9.70;99.90
19906;DHT22;10115;50.906;4.438;2023-04-25T08:29:34;9.20;99.90
19906;DHT22;10115;50.906;4.438;2023-04-25T08:32:00;9.10;99.90
19906;DHT22;10115;50.906;4.438;2023-04-25T08:34:26;8.90;99.90
19906;DHT22;10115;50.906;4.438;2023-04-25T08:36:52;8.70;99.90
19906;DHT22;10115;50.906;4.438;2023-04-25T08:39:18;9.00;99.90
19906;DHT22;10115;50.906;4.438;2023-04-25T08:41:44;9.30;99.90
19906;DHT22;10115;50.906;4.438;2023-04-25T08:44:10;9.40;99.90
19906;DHT22;10115;50.906;4.438;2023-04-25T08:46:38;9.50;99.90
19906;DHT22;10115;50.906;4.438;2023-04-25T08:49:07;9.50;99.90
19906;DHT22;10115;50.906;4.438;2023-04-25T08:51:36;9.30;99.90
19906;DHT22;10115;50.906;4.438;2023-04-25T08:54:10;9.20;99.90
19906;DHT22;10115;50.906;4.438;2023-04-25T08:56:55;9.50;99.90
19906;DHT22;10115;50.906;4.438;2023-04-25T08:59:23;9.90;99.90
19906;DHT22;10115;50.906;4.438;2023-04-25T09:01:49;9.90;99.90
19906;DHT22;10115;50.906;4.438;2023-04-25T09:04:16;10.30;99.90
19906;DHT22;10115;50.906;4.438;2023-04-25T09:06:43;10.90;99.90
19906;DHT22;10115;50.906;4.438;2023-04-25T09:09:09;10.80;99.90
19906;DHT22;10115;50.906;4.438;2023-04-25T09:11:36;10.70;99.90
19906;DHT22;10115;50.906;4.438;2023-04-25T09:14:16;10.00;99.90
19906;DHT22;10115;50.906;4.438;2023-04-25T09:16:58;9.50;99.90
19906;DHT22;10115;50.906;4.438;2023-04-25T09:19:28;9.30;99.90
19906;DHT22;10115;50.906;4.438;2023-04-25T09:21:56;9.70;99.90
19906;DHT22;10115;50.906;4.438;2023-04-25T09:24:40;9.70;99.90
19906;DHT22;10115;50.906;4.438;2023-04-25T09:27:11;9.80;99.90
19906;DHT22;10115;50.906;4.438;2023-04-25T09:29:40;9.80;99.90
19906;DHT22;10115;50.906;4.438;2023-04-25T09:32:18;10.00;99.90
19906;DHT22;10115;50.906;4.438;2023-04-25T09:34:49;10.00;99.90
19906;DHT22;10115;50.906;4.438;2023-04-25T09:37:29;9.90;99.90
19906;DHT22;10115;50.906;4.438;2023-04-25T09:39:57;10.20;99.90
19906;DHT22;10115;50.906;4.438;2023-04-25T09:42:27;10.40;99.90
19906;DHT22;10115;50.906;4.438;2023-04-25T09:44:55;10.70;99.90
19906;DHT22;10115;50.906;4.438;2023-04-25T09:47:24;11.20;99.90
19906;DHT22;10115;50.906;4.438;2023-04-25T09:49:51;11.00;99.90
19906;DHT22;10115;50.906;4.438;2023-04-25T09:52:20;10.60;99.90
19906;DHT22;10115;50.906;4.438;2023-04-25T09:54:47;10.60;99.90
19906;DHT22;10115;50.906;4.438;2023-04-25T09:57:32;10.20;99.90
19906;DHT22;10115;50.906;4.438;2023-04-25T10:00:00;9.80;99.90
19906;DHT22;10115;50.906;4.438;2023-04-25T10:02:27;9.50;99.90
19906;DHT22;10115;50.906;4.438;2023-04-25T10:04:54;9.70;99.90
19906;DHT22;10115;50.906;4.438;2023-04-25T10:07:22;9.80;99.90
19906;DHT22;10115;50.906;4.438;2023-04-25T10:09:59;10.40;99.90
19906;DHT22;10115;50.906;4.438;2023-04-25T10:12:27;10.80;99.90
19906;DHT22;10115;50.906;4.438;2023-04-25T10:14:54;10.80;99.90
19906;DHT22;10115;50.906;4.438;2023-04-25T10:17:20;11.00;99.90
19906;DHT22;10115;50.906;4.438;2023-04-25T10:19:47;11.20;99.90
19906;DHT22;10115;50.906;4.438;2023-04-25T10:22:19;11.10;99.90
19906;DHT22;10115;50.906;4.438;2023-04-25T10:24:46;11.60;99.90
19906;DHT22;10115;50.906;4.438;2023-04-25T10:27:13;11.90;99.90
19906;DHT22;10115;50.906;4.438;2023-04-25T10:29:41;12.00;99.90
19906;DHT22;10115;50.906;4.438;2023-04-25T10:32:08;12.40;99.90
19906;DHT22;10115;50.906;4.438;2023-04-25T10:34:45;12.30;99.90
19906;DHT22;10115;50.906;4.438;2023-04-25T10:37:13;12.20;99.90
19906;DHT22;10115;50.906;4.438;2023-04-25T10:39:41;12.30;99.90
19906;DHT22;10115;50.906;4.438;2023-04-25T10:42:07;12.50;99.90
19906;DHT22;10115;50.906;4.438;2023-04-25T10:44:33;11.90;99.90
19906;DHT22;10115;50.906;4.438;2023-04-25T10:47:01;11.70;99.90
19906;DHT22;10115;50.906;4.438;2023-04-25T10:52:26;11.60;99.90
19906;DHT22;10115;50.906;4.438;2023-04-25T10:54:54;11.30;99.90
19906;DHT22;10115;50.906;4.438;2023-04-25T10:57:42;11.30;99.90
19906;DHT22;10115;50.906;4.438;2023-04-25T11:00:17;11.50;99.90
19906;DHT22;10115;50.906;4.438;2023-04-25T11:02:52;11.10;99.90
19906;DHT22;10115;50.906;4.438;2023-04-25T11:05:34;10.80;99.90
19906;DHT22;10115;50.906;4.438;2023-04-25T11:08:01;10.00;99.90
19906;DHT22;10115;50.906;4.438;2023-04-25T11:10:30;10.00;99.90
19906;DHT22;10115;50.906;4.438;2023-04-25T11:12:56;10.10;99.90
19906;DHT22;10115;50.906;4.438;2023-04-25T11:15:22;10.50;99.90
19906;DHT22;10115;50.906;4.438;2023-04-25T11:17:50;10.60;99.90
19906;DHT22;10115;50.906;4.438;2023-04-25T11:20:16;10.40;99.90
19906;DHT22;10115;50.906;4.438;2023-04-25T11:22:45;10.50;99.90
19906;DHT22;10115;50.906;4.438;2023-04-25T11:25:14;10.50;99.90
19906;DHT22;10115;50.906;4.438;2023-04-25T11:27:50;10.50;99.90
19906;DHT22;10115;50.906;4.438;2023-04-25T11:30:17;10.50;99.90
19906;DHT22;10115;50.906;4.438;2023-04-25T11:32:43;10.90;99.90
19906;DHT22;10115;50.906;4.438;2023-04-25T11:35:09;11.00;99.90
19906;DHT22;10115;50.906;4.438;2023-04-25T11:37:35;10.50;99.90
19906;DHT22;10115;50.906;4.438;2023-04-25T11:40:03;10.60;99.90
19906;DHT22;10115;50.906;4.438;2023-04-25T11:42:30;10.50;99.90
19906;DHT22;10115;50.906;4.438;2023-04-25T11:44:55;10.30;99.90
19906;DHT22;10115;50.906;4.438;2023-04-25T11:47:30;10.30;99.90
19906;DHT22;10115;50.906;4.438;2023-04-25T11:50:01;10.70;99.90
19906;DHT22;10115;50.906;4.438;2023-04-25T11:52:45;11.00;99.90
19906;DHT22;10115;50.906;4.438;2023-04-25T11:55:19;11.30;99.90
19906;DHT22;10115;50.906;4.438;2023-04-25T11:57:47;11.50;99.90
19906;DHT22;10115;50.906;4.438;2023-04-25T12:00:16;12.00;99.90
19906;DHT22;10115;50.906;4.438;2023-04-25T12:02:43;12.40;99.90
19906;DHT22;10115;50.906;4.438;2023-04-25T12:05:13;12.30;99.90
19906;DHT22;10115;50.906;4.438;2023-04-25T12:07:39;12.00;99.90
19906;DHT22;10115;50.906;4.438;2023-04-25T12:10:11;11.80;99.90
19906;DHT22;10115;50.906;4.438;2023-04-25T12:12:37;11.20;99.90
19906;DHT22;10115;50.906;4.438;2023-04-25T12:15:18;10.80;99.90
19906;DHT22;10115;50.906;4.438;2023-04-25T12:17:48;11.30;99.90
19906;DHT22;10115;50.906;4.438;2023-04-25T12:20:18;11.40;99.90
19906;DHT22;10115;50.906;4.438;2023-04-25T12:22:49;11.50;99.90
19906;DHT22;10115;50.906;4.438;2023-04-25T12:25:34;11.60;99.90
19906;DHT22;10115;50.906;4.438;2023-04-25T12:30:59;12.10;99.90
19906;DHT22;10115;50.906;4.438;2023-04-25T12:33:26;12.20;99.90
19906;DHT22;10115;50.906;4.438;2023-04-25T12:35:53;12.60;99.90
19906;DHT22;10115;50.906;4.438;2023-04-25T12:38:30;12.60;99.90
19906;DHT22;10115;50.906;4.438;2023-04-25T12:40:57;12.60;99.90
19906;DHT22;10115;50.906;4.438;2023-04-25T12:43:23;12.20;99.90
19906;DHT22;10115;50.906;4.438;2023-04-25T12:45:50;12.40;99.90
19906;DHT22;10115;50.906;4.438;2023-04-25T12:48:16;12.20;99.90
19906;DHT22;10115;50.906;4.438;2023-04-25T12:50:42;11.80;99.90
19906;DHT22;10115;50.906;4.438;2023-04-25T12:53:09;11.60;99.90
19906;DHT22;10115;50.906;4.438;2023-04-25T12:55:35;11.90;99.90
19906;DHT22;10115;50.906;4.438;2023-04-25T12:58:01;12.20;99.90
19906;DHT22;10115;50.906;4.438;2023-04-25T13:00:27;12.30;99.90
19906;DHT22;10115;50.906;4.438;2023-04-25T13:02:52;12.20;99.90
19906;DHT22;10115;50.906;4.438;2023-04-25T13:05:18;12.20;99.90
19906;DHT22;10115;50.906;4.438;2023-04-25T13:07:44;11.80;99.90
19906;DHT22;10115;50.906;4.438;2023-04-25T13:10:10;11.60;99.90
19906;DHT22;10115;50.906;4.438;2023-04-25T13:12:36;12.70;99.90
19906;DHT22;10115;50.906;4.438;2023-04-25T13:15:02;13.50;99.90
19906;DHT22;10115;50.906;4.438;2023-04-25T13:17:27;14.00;99.90
19906;DHT22;10115;50.906;4.438;2023-04-25T13:19:53;14.70;99.90
19906;DHT22;10115;50.906;4.438;2023-04-25T13:22:19;15.00;99.90
19906;DHT22;10115;50.906;4.438;2023-04-25T13:24:45;16.10;99.90
19906;DHT22;10115;50.906;4.438;2023-04-25T13:27:12;17.00;99.90
19906;DHT22;10115;50.906;4.438;2023-04-25T13:29:38;16.90;99.90
19906;DHT22;10115;50.906;4.438;2023-04-25T13:32:06;15.80;99.90
19906;DHT22;10115;50.906;4.438;2023-04-25T13:34:32;15.60;99.90
19906;DHT22;10115;50.906;4.438;2023-04-25T13:36:58;14.40;99.90
19906;DHT22;10115;50.906;4.438;2023-04-25T13:39:23;14.50;99.90
19906;DHT22;10115;50.906;4.438;2023-04-25T13:41:49;15.60;99.90
19906;DHT22;10115;50.906;4.438;2023-04-25T13:44:15;15.70;99.90
19906;DHT22;10115;50.906;4.438;2023-04-25T13:46:41;15.00;99.90
19906;DHT22;10115;50.906;4.438;2023-04-25T13:49:07;14.50;99.90
19906;DHT22;10115;50.906;4.438;2023-04-25T13:51:34;14.10;99.90
19906;DHT22;10115;50.906;4.438;2023-04-25T13:54:00;14.80;99.90
19906;DHT22;10115;50.906;4.438;2023-04-25T13:56:26;15.80;99.90
19906;DHT22;10115;50.906;4.438;2023-04-25T13:58:52;17.00;99.90
19906;DHT22;10115;50.906;4.438;2023-04-25T14:01:18;17.20;99.90
19906;DHT22;10115;50.906;4.438;2023-04-25T14:03:44;16.60;99.90
19906;DHT22;10115;50.906;4.438;2023-04-25T14:06:10;15.60;99.90
19906;DHT22;10115;50.906;4.438;2023-04-25T14:08:38;14.60;99.90
19906;DHT22;10115;50.906;4.438;2023-04-25T14:11:04;13.70;99.90
19906;DHT22;10115;50.906;4.438;2023-04-25T14:13:30;14.30;99.90
19906;DHT22;10115;50.906;4.438;2023-04-25T14:15:55;15.40;99.90
19906;DHT22;10115;50.906;4.438;2023-04-25T14:18:21;15.40;99.90
19906;DHT22;10115;50.906;4.438;2023-04-25T14:20:47;14.90;99.90
19906;DHT22;10115;50.906;4.438;2023-04-25T14:23:13;15.60;99.90
19906;DHT22;10115;50.906;4.438;2023-04-25T14:25:39;16.50;99.90
19906;DHT22;10115;50.906;4.438;2023-04-25T14:28:05;15.60;99.90
19906;DHT22;10115;50.906;4.438;2023-04-25T14:30:31;16.20;99.90
19906;DHT22;10115;50.906;4.438;2023-04-25T14:32:57;16.00;99.90
19906;DHT22;10115;50.906;4.438;2023-04-25T14:35:23;16.20;99.90
19906;DHT22;10115;50.906;4.438;2023-04-25T14:37:48;15.50;99.90
19906;DHT22;10115;50.906;4.438;2023-04-25T14:40:14;14.50;99.90
19906;DHT22;10115;50.906;4.438;2023-04-25T14:42:42;15.60;99.90
19906;DHT22;10115;50.906;4.438;2023-04-25T14:45:08;15.40;99.90
19906;DHT22;10115;50.906;4.438;2023-04-25T14:47:37;15.60;99.90
19906;DHT22;10115;50.906;4.438;2023-04-25T14:50:03;16.90;99.90
19906;DHT22;10115;50.906;4.438;2023-04-25T14:52:30;17.90;99.90
19906;DHT22;10115;50.906;4.438;2023-04-25T14:54:56;17.70;99.90
19906;DHT22;10115;50.906;4.438;2023-04-25T14:57:22;16.50;99.90
19906;DHT22;10115;50.906;4.438;2023-04-25T14:59:47;15.10;99.90
19906;DHT22;10115;50.906;4.438;2023-04-25T15:02:13;14.00;99.90
19906;DHT22;10115;50.906;4.438;2023-04-25T15:04:39;13.50;99.90
19906;DHT22;10115;50.906;4.438;2023-04-25T15:07:05;13.70;99.90
19906;DHT22;10115;50.906;4.438;2023-04-25T15:09:30;13.40;99.90
19906;DHT22;10115;50.906;4.438;2023-04-25T15:11:57;14.80;99.90
19906;DHT22;10115;50.906;4.438;2023-04-25T15:14:23;16.30;99.90
19906;DHT22;10115;50.906;4.438;2023-04-25T15:16:48;16.80;99.90
19906;DHT22;10115;50.906;4.438;2023-04-25T15:19:14;17.70;99.90
19906;DHT22;10115;50.906;4.438;2023-04-25T15:21:40;17.40;99.90
19906;DHT22;10115;50.906;4.438;2023-04-25T15:24:06;15.10;99.90
19906;DHT22;10115;50.906;4.438;2023-04-25T15:26:33;14.40;99.90
19906;DHT22;10115;50.906;4.438;2023-04-25T15:28:58;14.10;99.90
19906;DHT22;10115;50.906;4.438;2023-04-25T15:31:24;15.70;99.90
19906;DHT22;10115;50.906;4.438;2023-04-25T15:33:50;16.50;99.90
19906;DHT22;10115;50.906;4.438;2023-04-25T15:36:16;16.80;99.90
19906;DHT22;10115;50.906;4.438;2023-04-25T15:38:43;17.10;99.90
19906;DHT22;10115;50.906;4.438;2023-04-25T15:41:09;18.60;99.90
19906;DHT22;10115;50.906;4.438;2023-04-25T15:43:35;17.80;99.20
19906;DHT22;10115;50.906;4.438;2023-04-25T15:46:04;16.40;99.70